Time;durP1;ratioP1;P1;durP2;ratioP2;P2;SDS_P1;SDS_P2;PMS_P1;PMS_P2;Temp;Humidity;BMP_temperature;BMP_pressure;BME280_temperature;BME280_humidity;BME280_pressure;Samples;Min_cycle;Max_cycle;Signal;HPM_P1;HPM_P2
2023/06/02 00:00:40;;;;;;;9.05;3.78;;;;;;;12.29;72.10;95895.72;2097464;28;20404;-59
2023/06/02 00:01:43;;;;;;;5.82;3.70;;;;;;;12.26;71.65;95891.53;2097283;28;20052;-59
2023/06/02 00:02:47;;;;;;;8.07;4.03;;;;;;;12.21;71.97;95887.50;2097183;28;20056;-59
2023/06/02 00:03:49;;;;;;;9.88;4.15;;;;;;;12.20;72.05;95897.09;2098106;28;20044;-59
2023/06/02 00:04:50;;;;;;;8.38;3.80;;;;;;;12.20;71.96;95894.47;2097837;28;20416;-59
2023/06/02 00:05:51;;;;;;;7.05;3.38;;;;;;;12.18;72.25;95900.69;2097300;28;20059;-59
2023/06/02 00:06:53;;;;;;;8.70;3.83;;;;;;;12.13;72.94;95896.59;2097836;28;20095;-59
2023/06/02 00:07:55;;;;;;;6.13;3.70;;;;;;;12.10;72.94;95904.53;2097553;28;20422;-59
2023/06/02 00:08:57;;;;;;;6.80;3.42;;;;;;;12.06;73.24;95905.66;2097324;28;20069;-59
2023/06/02 00:09:59;;;;;;;10.20;4.53;;;;;;;12.05;72.74;95906.56;2097477;28;20056;-59
2023/06/02 00:11:00;;;;;;;11.13;4.20;;;;;;;11.94;73.49;95889.84;2097344;28;20049;-59
2023/06/02 00:12:01;;;;;;;9.13;4.05;;;;;;;11.99;73.50;95899.09;2097897;28;20376;-58
2023/06/02 00:13:02;;;;;;;10.55;4.05;;;;;;;12.00;73.35;95902.53;2098054;28;20041;-59
2023/06/02 00:14:04;;;;;;;7.40;3.88;;;;;;;11.87;73.39;95886.75;2097323;28;20049;-59
2023/06/02 00:15:05;;;;;;;8.68;4.18;;;;;;;11.94;74.34;95901.09;2097324;28;20040;-58
2023/06/02 00:16:06;;;;;;;9.35;4.07;;;;;;;11.91;73.79;95899.50;2097304;28;20392;-59
2023/06/02 00:17:08;;;;;;;6.20;3.78;;;;;;;11.88;74.22;95901.44;2097517;28;20049;-59
2023/06/02 00:18:09;;;;;;;8.40;4.28;;;;;;;11.80;74.44;95890.56;2098023;28;20380;-59
2023/06/02 00:19:11;;;;;;;10.38;4.28;;;;;;;11.88;74.97;95898.84;2098041;28;20051;-59
2023/06/02 00:20:12;;;;;;;8.57;3.92;;;;;;;11.86;75.52;95903.28;2097331;28;20063;-60
2023/06/02 00:21:14;;;;;;;6.95;4.40;;;;;;;11.87;75.42;95904.97;2097124;28;20417;-59
2023/06/02 00:22:15;;;;;;;7.10;3.75;;;;;;;11.84;76.36;95899.88;2089224;28;20409;-59
2023/06/02 00:23:16;;;;;;;8.60;3.83;;;;;;;11.75;75.80;95890.81;2088699;28;20063;-59
2023/06/02 00:24:19;;;;;;;9.10;4.47;;;;;;;11.80;76.73;95906.19;2097374;28;20064;-59
2023/06/02 00:25:20;;;;;;;10.70;4.43;;;;;;;11.78;76.49;95900.22;2097242;28;20052;-59
2023/06/02 00:26:21;;;;;;;9.70;4.15;;;;;;;11.67;76.83;95883.41;2097940;28;20055;-59
2023/06/02 00:27:23;;;;;;;6.97;4.15;;;;;;;11.68;76.95;95892.06;2098153;28;20400;-59
2023/06/02 00:28:24;;;;;;;8.68;3.95;;;;;;;11.62;77.07;95889.78;2098065;28;20043;-59
2023/06/02 00:29:25;;;;;;;10.73;3.85;;;;;;;11.67;76.72;95900.78;2088439;28;20049;-59
2023/06/02 00:30:27;;;;;;;7.55;4.10;;;;;;;11.63;76.50;95900.13;2089130;28;20052;-59
2023/06/02 00:31:28;;;;;;;9.35;4.65;;;;;;;11.61;77.36;95901.13;2097516;28;20385;-59
2023/06/02 00:32:29;;;;;;;9.90;4.70;;;;;;;11.59;77.14;95903.78;2098066;28;20055;-59
2023/06/02 00:33:30;;;;;;;8.70;3.80;;;;;;;11.56;76.84;95901.34;2097298;28;20056;-59
2023/06/02 00:34:31;;;;;;;8.85;4.05;;;;;;;11.56;77.32;95903.13;2097280;28;20055;-59
2023/06/02 00:35:32;;;;;;;8.48;3.92;;;;;;;11.51;77.33;95899.91;2097967;28;20044;-59
2023/06/02 00:36:33;;;;;;;7.53;4.07;;;;;;;11.50;77.27;95900.84;2097701;28;20053;-59
2023/06/02 00:37:34;;;;;;;7.20;3.58;;;;;;;11.46;77.70;95902.75;2097152;28;20063;-59
2023/06/02 00:38:35;;;;;;;11.00;4.47;;;;;;;11.44;77.19;95904.59;2098090;28;20051;-59
2023/06/02 00:39:37;;;;;;;9.85;4.35;;;;;;;11.42;77.99;95901.25;2097473;28;20056;-59
2023/06/02 00:40:38;;;;;;;6.38;4.03;;;;;;;11.31;77.91;95893.16;2097363;28;20056;-59
2023/06/02 00:41:39;;;;;;;5.80;3.97;;;;;;;11.29;78.09;95887.19;2097727;28;20056;-59
2023/06/02 00:42:40;;;;;;;9.45;4.10;;;;;;;11.26;78.42;95894.22;2088762;28;20477;-59
2023/06/02 00:43:42;;;;;;;8.85;4.70;;;;;;;11.24;78.67;95903.88;2088317;28;20049;-59
2023/06/02 00:44:43;;;;;;;13.68;4.32;;;;;;;11.30;78.09;95907.06;2097410;28;20048;-59
2023/06/02 00:45:44;;;;;;;12.57;4.57;;;;;;;11.26;79.21;95904.63;2088985;28;20048;-59
2023/06/02 00:46:45;;;;;;;8.93;4.82;;;;;;;11.24;79.16;95908.22;2072232;28;20126;-58
2023/06/02 00:47:46;;;;;;;8.32;4.85;;;;;;;11.22;79.08;95912.66;2080330;28;20437;-58
2023/06/02 00:48:48;;;;;;;12.45;4.60;;;;;;;11.19;79.29;95905.03;2097806;28;20052;-59
2023/06/02 00:49:49;;;;;;;9.68;4.82;;;;;;;11.15;80.16;95919.09;2088918;28;20045;-60
2023/06/02 00:50:51;;;;;;;11.63;4.70;;;;;;;11.02;79.62;95898.91;2088931;28;20369;-58
2023/06/02 00:51:52;;;;;;;10.77;5.10;;;;;;;11.03;80.62;95897.16;2097234;28;20440;-59
2023/06/02 00:52:55;;;;;;;11.98;4.57;;;;;;;11.09;80.59;95917.63;2080886;28;20045;-60
2023/06/02 00:53:56;;;;;;;8.77;4.10;;;;;;;11.08;80.41;95920.31;2081275;28;20037;-60
2023/06/02 00:54:57;;;;;;;7.97;4.53;;;;;;;11.05;80.15;95918.72;2097514;28;20056;-58
2023/06/02 00:55:59;;;;;;;10.90;4.88;;;;;;;11.04;80.10;95922.25;2088105;28;20049;-60
2023/06/02 00:57:00;;;;;;;9.02;4.72;;;;;;;11.01;80.30;95915.44;2080976;28;20046;-60
2023/06/02 00:58:03;;;;;;;8.20;4.45;;;;;;;11.00;80.71;95920.69;2088716;28;20048;-60
2023/06/02 00:59:04;;;;;;;11.20;4.95;;;;;;;10.97;81.13;95915.66;2080662;28;20450;-60
2023/06/02 01:00:09;;;;;;;9.63;4.75;;;;;;;10.98;81.31;95917.34;2064597;28;20539;-60
2023/06/02 01:01:12;;;;;;;8.65;4.50;;;;;;;10.91;81.09;95910.78;2073674;28;20057;-60
2023/06/02 01:02:13;;;;;;;6.72;4.85;;;;;;;10.94;81.05;95911.47;2088522;28;20083;-60
2023/06/02 01:03:14;;;;;;;7.72;4.80;;;;;;;10.91;80.76;95913.38;2088727;28;20053;-60
2023/06/02 01:04:16;;;;;;;9.73;4.55;;;;;;;10.73;81.31;95889.97;2089453;28;20064;-60
2023/06/02 01:05:19;;;;;;;10.23;4.90;;;;;;;10.87;80.79;95920.47;2090078;28;20061;-60
2023/06/02 01:06:23;;;;;;;8.13;4.60;;;;;;;10.84;81.08;95909.41;2090074;28;20061;-60
2023/06/02 01:07:25;;;;;;;10.02;5.10;;;;;;;10.77;80.96;95903.66;2074804;28;20417;-60
2023/06/02 01:08:27;;;;;;;7.13;5.00;;;;;;;10.77;81.12;95911.44;2066539;28;20526;-60
2023/06/02 01:09:28;;;;;;;9.20;4.90;;;;;;;10.70;81.95;95908.31;2073495;28;20109;-60
2023/06/02 01:10:29;;;;;;;11.20;5.25;;;;;;;10.74;81.97;95912.44;2090052;28;20523;-60
2023/06/02 01:11:30;;;;;;;11.00;5.10;;;;;;;10.72;81.86;95916.88;2089724;28;20064;-60
2023/06/02 01:12:31;;;;;;;10.93;6.32;;;;;;;10.69;81.63;95911.84;2082274;28;20041;-60
2023/06/02 01:13:33;;;;;;;7.65;5.05;;;;;;;10.69;82.46;95918.78;2081883;28;20050;-60
2023/06/02 01:14:34;;;;;;;10.48;5.53;;;;;;;10.66;82.25;95911.13;2090107;28;20060;-59
2023/06/02 01:15:35;;;;;;;8.30;5.43;;;;;;;10.65;82.33;95915.50;2098613;28;20064;-59
2023/06/02 01:16:38;;;;;;;9.23;5.63;;;;;;;10.54;82.58;95897.00;2098537;28;20069;-60
2023/06/02 01:17:45;;;;;;;12.00;5.40;;;;;;;10.58;82.51;95901.97;2099207;28;20074;-60
2023/06/02 01:18:46;;;;;;;14.27;6.20;;;;;;;10.51;82.91;95891.97;2098647;28;20342;-60
2023/06/02 01:19:49;;;;;;;7.63;5.70;;;;;;;10.60;82.51;95907.91;2081956;28;20056;-59
2023/06/02 01:20:52;;;;;;;8.55;5.60;;;;;;;10.56;82.85;95908.16;2074435;28;20044;-60
2023/06/02 01:21:59;;;;;;;9.23;5.40;;;;;;;10.52;82.97;95904.00;2082232;28;20053;-60
2023/06/02 01:23:09;;;;;;;9.30;5.60;;;;;;;10.52;82.92;95911.81;2075114;28;20038;-59
2023/06/02 01:24:10;;;;;;;10.00;5.97;;;;;;;10.50;83.59;95901.47;2084711;28;20057;-60
2023/06/02 01:25:29;;;;;;;9.38;6.05;;;;;;;10.47;83.05;95904.22;2090565;28;20048;-59
2023/06/02 01:26:35;;;;;;;10.80;6.07;;;;;;;10.44;83.83;95901.78;2084124;28;20077;-60
2023/06/02 01:27:36;;;;;;;8.73;6.28;;;;;;;10.42;83.26;95907.97;2090825;28;20101;-60
2023/06/02 01:28:37;;;;;;;10.40;6.28;;;;;;;10.30;83.49;95886.88;2099347;28;20388;-60
2023/06/02 01:29:38;;;;;;;7.63;5.53;;;;;;;10.35;84.19;95900.47;2099079;28;20044;-60
2023/06/02 01:30:40;;;;;;;9.18;6.03;;;;;;;10.33;84.07;95899.72;2089601;28;20057;-60
2023/06/02 01:31:46;;;;;;;11.23;6.10;;;;;;;10.32;84.01;95894.59;2081894;28;20052;-60
2023/06/02 01:32:59;;;;;;;11.82;6.20;;;;;;;10.29;84.79;95900.78;2082734;28;20105;-59
2023/06/02 01:34:24;;;;;;;7.82;5.65;;;;;;;10.28;84.70;95893.88;2083721;28;20041;-59
2023/06/02 01:35:27;;;;;;;8.27;6.07;;;;;;;10.27;85.16;95904.34;2077757;28;20080;-59
2023/06/02 01:36:29;;;;;;;9.10;6.03;;;;;;;10.24;84.83;95904.47;2066184;28;20054;-59
2023/06/02 01:37:31;;;;;;;10.60;6.05;;;;;;;10.21;85.44;95900.28;2074300;28;20097;-61
2023/06/02 01:38:33;;;;;;;10.60;6.75;;;;;;;10.20;85.76;95897.75;2073840;28;20061;-60
2023/06/02 01:39:34;;;;;;;11.45;6.38;;;;;;;10.09;85.09;95883.50;2073932;28;20050;-59
2023/06/02 01:40:35;;;;;;;9.98;6.10;;;;;;;10.18;85.72;95903.00;2089669;28;20053;-60
2023/06/02 01:41:40;;;;;;;11.25;6.05;;;;;;;10.18;85.90;95903.00;2081826;28;20060;-60
2023/06/02 01:42:41;;;;;;;10.93;5.65;;;;;;;10.10;85.53;95886.94;2059038;28;20050;-60
2023/06/02 01:43:42;;;;;;;11.20;6.63;;;;;;;10.18;85.94;95896.97;2066234;28;20521;-60
2023/06/02 01:44:44;;;;;;;9.85;5.72;;;;;;;10.14;85.57;95899.72;2073321;28;20062;-59
2023/06/02 01:45:45;;;;;;;12.05;6.32;;;;;;;10.13;85.85;95898.03;2073643;28;20042;-60
2023/06/02 01:46:46;;;;;;;10.73;6.40;;;;;;;10.12;86.06;95890.31;2057475;28;20380;-60
2023/06/02 01:47:47;;;;;;;11.52;6.05;;;;;;;10.11;86.07;95899.84;2073548;28;20056;-60
2023/06/02 01:48:52;;;;;;;12.07;6.53;;;;;;;9.99;85.72;95877.06;2081508;28;20088;-60
2023/06/02 01:49:53;;;;;;;9.32;6.40;;;;;;;10.08;85.68;95894.81;2074624;28;20054;-59
2023/06/02 01:50:54;;;;;;;10.30;7.13;;;;;;;10.02;86.13;95884.69;2081726;28;20045;-59
2023/06/02 01:51:55;;;;;;;9.50;6.75;;;;;;;10.08;85.96;95893.97;2081858;28;20095;-59
2023/06/02 01:52:56;;;;;;;10.07;6.28;;;;;;;10.07;86.54;95892.28;2089683;28;20071;-60
2023/06/02 01:53:57;;;;;;;12.23;7.03;;;;;;;10.08;86.07;95893.97;2098213;28;20404;-59
2023/06/02 01:54:58;;;;;;;11.23;7.00;;;;;;;10.07;86.67;95892.28;2098900;28;20040;-60
2023/06/02 01:56:00;;;;;;;9.82;6.18;;;;;;;10.05;86.75;95892.38;2098343;28;20063;-59
2023/06/02 01:57:02;;;;;;;14.75;7.68;;;;;;;10.04;86.95;95892.44;2098400;28;20052;-60
2023/06/02 01:58:03;;;;;;;9.85;6.85;;;;;;;10.01;86.15;95893.41;2089843;28;20496;-60
2023/06/02 01:59:04;;;;;;;12.05;6.80;;;;;;;9.88;86.81;95874.97;2089901;28;20064;-59
2023/06/02 02:00:08;;;;;;;10.57;7.15;;;;;;;9.98;86.67;95898.75;2089319;28;20053;-60
2023/06/02 02:01:14;;;;;;;9.80;6.60;;;;;;;9.97;86.74;95891.03;2090777;28;20075;-60
2023/06/02 02:02:15;;;;;;;12.68;7.20;;;;;;;9.96;86.96;95890.19;2098756;28;20289;-59
2023/06/02 02:03:17;;;;;;;9.85;6.32;;;;;;;9.96;87.30;95899.72;2098219;28;20059;-60
2023/06/02 02:04:18;;;;;;;10.38;6.95;;;;;;;9.83;87.47;95878.69;2098776;28;20041;-60
2023/06/02 02:05:20;;;;;;;13.02;7.13;;;;;;;9.92;87.72;95891.25;2098341;28;20060;-60
2023/06/02 02:06:34;;;;;;;13.10;7.13;;;;;;;9.92;88.15;95893.84;2098246;28;20052;-60
2023/06/02 02:07:35;;;;;;;13.40;6.93;;;;;;;9.92;88.00;95893.84;2098109;28;20052;-60
2023/06/02 02:08:36;;;;;;;12.52;7.32;;;;;;;9.89;88.00;95889.66;2098240;28;20460;-59
2023/06/02 02:09:38;;;;;;;9.40;6.50;;;;;;;9.89;88.60;95889.66;2098146;28;20059;-60
2023/06/02 02:10:39;;;;;;;13.38;7.10;;;;;;;9.91;88.31;95895.56;2098919;28;20040;-60
2023/06/02 02:11:40;;;;;;;9.60;6.63;;;;;;;9.92;88.60;95891.25;2098249;28;20059;-59
2023/06/02 02:12:41;;;;;;;8.57;6.60;;;;;;;9.89;88.26;95892.22;2098190;28;20052;-59
2023/06/02 02:13:42;;;;;;;13.68;6.82;;;;;;;9.88;88.54;95893.13;2089174;28;20060;-60
2023/06/02 02:14:43;;;;;;;9.32;6.78;;;;;;;9.87;88.01;95891.47;2089136;28;20080;-59
2023/06/02 02:15:45;;;;;;;10.23;6.82;;;;;;;9.87;88.14;95888.03;2098634;28;20385;-59
2023/06/02 02:16:49;;;;;;;14.25;6.53;;;;;;;9.86;88.61;95889.78;2088946;28;20064;-59
2023/06/02 02:17:50;;;;;;;10.48;7.15;;;;;;;9.84;88.79;95889.00;2090364;28;20041;-60
2023/06/02 02:18:52;;;;;;;15.13;7.15;;;;;;;9.87;88.58;95891.47;2089997;28;20048;-60
2023/06/02 02:19:55;;;;;;;10.32;6.47;;;;;;;9.75;88.33;95867.84;2089783;28;20045;-60
2023/06/02 02:20:56;;;;;;;11.63;6.85;;;;;;;9.83;88.91;95882.13;2098154;28;20396;-59
2023/06/02 02:21:58;;;;;;;14.15;6.75;;;;;;;9.75;88.96;95873.03;2098547;28;20039;-59
2023/06/02 02:22:59;;;;;;;17.67;7.68;;;;;;;9.81;88.67;95878.78;2089778;28;20052;-60
2023/06/02 02:24:00;;;;;;;9.82;6.60;;;;;;;9.80;88.90;95884.88;2088825;28;20060;-60
2023/06/02 02:25:02;;;;;;;12.13;6.68;;;;;;;9.80;88.89;95884.03;2088960;28;20436;-59
2023/06/02 02:26:03;;;;;;;13.30;6.88;;;;;;;9.80;89.21;95886.63;2089557;28;20440;-59
2023/06/02 02:27:07;;;;;;;10.60;7.05;;;;;;;9.78;89.23;95885.84;2089107;28;20057;-60
2023/06/02 02:28:09;;;;;;;13.20;6.68;;;;;;;9.77;88.99;95885.00;2081924;28;20464;-59
2023/06/02 02:29:10;;;;;;;11.30;6.28;;;;;;;9.81;89.04;95878.78;2089197;28;20057;-60
2023/06/02 02:30:11;;;;;;;13.05;6.70;;;;;;;9.80;89.64;95882.25;2089154;28;20501;-59
2023/06/02 02:31:12;;;;;;;11.77;6.47;;;;;;;9.64;89.43;95857.94;2089203;28;20057;-59
2023/06/02 02:32:14;;;;;;;10.05;6.68;;;;;;;9.66;88.65;95869.09;2089749;28;20501;-59
2023/06/02 02:33:15;;;;;;;12.70;5.80;;;;;;;9.75;89.13;95879.03;2081434;28;20061;-60
2023/06/02 02:34:19;;;;;;;9.75;6.38;;;;;;;9.73;89.46;95878.28;2080930;28;20053;-59
2023/06/02 02:35:20;;;;;;;12.38;6.32;;;;;;;9.72;89.16;95887.81;2089272;28;20055;-60
2023/06/02 02:36:22;;;;;;;12.70;6.47;;;;;;;9.71;89.73;95882.69;2089100;28;20066;-59
2023/06/02 02:37:23;;;;;;;13.52;6.80;;;;;;;9.70;89.84;95883.59;2081075;28;20053;-60
2023/06/02 02:38:24;;;;;;;10.90;7.00;;;;;;;9.68;89.51;95886.28;2089637;28;20041;-59
2023/06/02 02:39:25;;;;;;;10.50;6.40;;;;;;;9.68;89.50;95890.63;2089596;28;20048;-60
2023/06/02 02:40:26;;;;;;;15.00;6.28;;;;;;;9.67;89.68;95887.16;2089128;28;20053;-60
2023/06/02 02:41:28;;;;;;;16.30;6.20;;;;;;;9.67;89.11;95884.56;2089033;28;20057;-59
2023/06/02 02:42:29;;;;;;;15.38;6.45;;;;;;;9.66;89.26;95888.09;2088959;28;20068;-59
2023/06/02 02:43:30;;;;;;;10.93;6.63;;;;;;;9.65;89.33;95881.22;2088888;28;20444;-60
2023/06/02 02:44:31;;;;;;;11.77;7.00;;;;;;;9.66;89.17;95889.84;2089613;28;20048;-60
2023/06/02 02:45:32;;;;;;;13.13;6.68;;;;;;;9.65;89.34;95876.03;2088710;28;20053;-60
2023/06/02 02:46:33;;;;;;;12.85;6.45;;;;;;;9.63;89.41;95888.22;2089271;28;20061;-60
2023/06/02 02:47:35;;;;;;;8.88;6.00;;;;;;;9.49;88.97;95865.53;2089065;28;20469;-60
2023/06/02 02:48:36;;;;;;;12.85;6.68;;;;;;;9.63;89.24;95883.03;2089280;28;20420;-60
2023/06/02 02:49:39;;;;;;;13.73;5.97;;;;;;;9.61;89.57;95892.63;2081189;28;20057;-59
2023/06/02 02:50:40;;;;;;;11.70;6.35;;;;;;;9.47;89.44;95859.56;2088922;28;20053;-59
2023/06/02 02:51:41;;;;;;;9.90;6.13;;;;;;;9.62;89.24;95883.09;2080534;28;20378;-59
2023/06/02 02:52:42;;;;;;;13.13;6.63;;;;;;;9.59;89.93;95889.25;2089304;28;20060;-59
2023/06/02 02:53:43;;;;;;;13.95;6.40;;;;;;;9.60;90.04;95888.38;2089020;28;20060;-59
2023/06/02 02:54:44;;;;;;;13.00;6.63;;;;;;;9.62;90.05;95889.16;2089194;28;20052;-59
2023/06/02 02:55:51;;;;;;;12.77;6.18;;;;;;;9.61;89.95;95894.41;2088947;28;20520;-59
2023/06/02 02:56:52;;;;;;;13.88;6.07;;;;;;;9.62;90.09;95890.88;2081685;28;20070;-59
2023/06/02 02:57:55;;;;;;;13.90;6.45;;;;;;;9.58;90.06;95889.34;2081483;28;20052;-59
2023/06/02 02:59:00;;;;;;;11.60;5.38;;;;;;;9.56;89.95;95886.81;2089191;28;20170;-59
2023/06/02 03:00:01;;;;;;;9.88;5.63;;;;;;;9.56;90.23;95889.41;2088740;28;20056;-59
2023/06/02 03:01:15;;;;;;;10.73;5.43;;;;;;;9.56;90.62;95885.97;2082129;28;20041;-59
2023/06/02 03:02:16;;;;;;;;;;;;;;;9.55;90.30;95886.91;2089379;28;20060;-59
2023/06/02 03:03:17;;;;;;;8.88;5.30;;;;;;;9.53;90.07;95892.13;2088935;28;20257;-59
2023/06/02 03:04:21;;;;;;;14.43;5.50;;;;;;;9.52;90.00;95890.47;2089590;28;20059;-60
2023/06/02 03:05:23;;;;;;;9.27;5.90;;;;;;;9.53;90.42;95886.13;2073209;28;20054;-60
2023/06/02 03:06:31;;;;;;;11.88;5.38;;;;;;;9.54;90.12;95883.44;2072573;28;20064;-59
2023/06/02 03:07:34;;;;;;;12.48;5.68;;;;;;;9.54;90.67;95883.44;2081600;28;20060;-60
2023/06/02 03:08:36;;;;;;;13.20;5.82;;;;;;;9.53;90.43;95880.94;2080617;28;20060;-60
2023/06/02 03:09:37;;;;;;;12.10;6.32;;;;;;;9.53;90.31;95880.94;2089489;28;20045;-59
2023/06/02 03:10:39;;;;;;;10.23;5.88;;;;;;;9.53;90.02;95880.94;2089588;28;20049;-57
2023/06/02 03:11:42;;;;;;;12.30;6.10;;;;;;;9.44;90.00;95867.47;2089459;28;20052;-58
2023/06/02 03:12:44;;;;;;;10.20;5.93;;;;;;;9.52;90.04;95884.44;2081211;28;20041;-57
2023/06/02 03:13:45;;;;;;;11.30;6.30;;;;;;;9.52;90.16;95892.22;2080422;28;20053;-57
2023/06/02 03:14:46;;;;;;;12.23;5.85;;;;;;;9.47;89.75;95880.28;2080996;28;20068;-57
2023/06/02 03:15:48;;;;;;;10.43;5.50;;;;;;;9.52;90.42;95884.44;2080588;28;20064;-57
2023/06/02 03:16:50;;;;;;;11.02;5.57;;;;;;;9.51;89.94;95888.78;2081254;28;20406;-57
2023/06/02 03:17:52;;;;;;;10.52;6.10;;;;;;;9.44;90.22;95867.47;2080753;28;20419;-57
2023/06/02 03:18:53;;;;;;;10.07;6.00;;;;;;;9.54;90.21;95882.59;2080740;28;20049;-57
2023/06/02 03:19:57;;;;;;;11.68;6.65;;;;;;;9.54;90.52;95882.59;2080647;28;20065;-57
2023/06/02 03:20:59;;;;;;;12.20;6.28;;;;;;;9.54;90.49;95882.59;2090018;28;20479;-57
2023/06/02 03:22:00;;;;;;;14.57;5.93;;;;;;;9.55;90.65;95885.16;2088644;28;20057;-57
2023/06/02 03:23:02;;;;;;;13.82;5.78;;;;;;;9.54;90.71;95882.59;2088672;28;20045;-57
2023/06/02 03:24:04;;;;;;;11.20;6.03;;;;;;;9.57;90.71;95885.06;2080627;28;20050;-57
2023/06/02 03:25:06;;;;;;;15.85;6.80;;;;;;;9.47;91.04;95867.34;2073031;28;20046;-57
2023/06/02 03:26:08;;;;;;;10.82;6.00;;;;;;;9.59;91.06;95888.44;2072674;28;20084;-57
2023/06/02 03:27:13;;;;;;;12.70;6.10;;;;;;;9.58;91.36;95878.97;2088656;28;20068;-57
2023/06/02 03:28:15;;;;;;;11.40;6.00;;;;;;;9.61;91.19;95884.03;2088722;28;20045;-57
2023/06/02 03:29:17;;;;;;;9.00;5.85;;;;;;;9.61;91.00;95884.84;2081852;28;20049;-58
2023/06/02 03:30:21;;;;;;;13.52;6.30;;;;;;;9.62;91.47;95883.09;2089516;28;20162;-57
2023/06/02 03:31:25;;;;;;;12.73;5.90;;;;;;;9.61;91.26;95886.63;2097598;28;20407;-58
2023/06/02 03:32:27;;;;;;;10.00;6.13;;;;;;;9.51;91.31;95865.44;2088895;28;20143;-57
2023/06/02 03:33:28;;;;;;;11.95;6.55;;;;;;;9.60;91.20;95887.53;2080852;28;20060;-57
2023/06/02 03:34:29;;;;;;;9.98;6.07;;;;;;;9.61;91.25;95881.44;2080270;28;20057;-57
2023/06/02 03:35:32;;;;;;;10.25;6.30;;;;;;;9.61;91.42;95881.44;2088970;28;20052;-56
2023/06/02 03:36:37;;;;;;;12.38;5.97;;;;;;;9.60;91.19;95885.78;2089088;28;20040;-57
2023/06/02 03:37:39;;;;;;;8.23;5.80;;;;;;;9.62;91.32;95886.56;2081544;28;20049;-57
2023/06/02 03:38:40;;;;;;;12.00;6.07;;;;;;;9.62;91.16;95885.69;2080051;28;20049;-57
2023/06/02 03:39:41;;;;;;;13.48;6.05;;;;;;;9.61;91.63;95884.03;2088653;28;20056;-57
2023/06/02 03:40:42;;;;;;;13.35;6.28;;;;;;;9.59;90.78;95889.25;2088663;28;20057;-57
2023/06/02 03:41:43;;;;;;;10.88;5.88;;;;;;;9.58;91.28;95881.56;2088930;28;20397;-57
2023/06/02 03:42:45;;;;;;;11.80;5.78;;;;;;;9.65;91.02;95891.59;2097492;28;20056;-57
2023/06/02 03:43:46;;;;;;;10.18;5.82;;;;;;;9.65;91.11;95895.91;2089140;28;20060;-57
2023/06/02 03:44:47;;;;;;;10.32;5.75;;;;;;;9.66;90.72;95897.63;2080731;28;20053;-57
2023/06/02 03:45:48;;;;;;;11.27;6.95;;;;;;;9.67;91.58;95894.94;2088573;28;20064;-57
2023/06/02 03:46:51;;;;;;;8.48;6.07;;;;;;;9.62;90.99;95885.69;2088524;28;20044;-57
2023/06/02 03:47:53;;;;;;;9.05;5.75;;;;;;;9.65;91.02;95891.59;2081221;28;20056;-57
2023/06/02 03:48:56;;;;;;;12.63;5.63;;;;;;;9.76;90.73;95904.09;2080636;28;20045;-57
2023/06/02 03:49:58;;;;;;;14.20;6.53;;;;;;;9.76;90.71;95893.72;2080173;28;20049;-57
2023/06/02 03:50:59;;;;;;;12.43;6.05;;;;;;;9.78;90.68;95897.06;2088892;28;20056;-57
2023/06/02 03:52:00;;;;;;;11.73;5.93;;;;;;;9.81;90.58;95898.66;2097543;28;20053;-58
2023/06/02 03:53:02;;;;;;;9.82;6.00;;;;;;;9.84;90.94;95907.16;2088355;28;20136;-57
2023/06/02 03:54:03;;;;;;;13.02;6.55;;;;;;;9.83;90.28;95902.88;2089108;28;20052;-57
2023/06/02 03:55:06;;;;;;;9.05;5.93;;;;;;;9.85;89.63;95898.47;2080586;28;20049;-57
2023/06/02 03:56:07;;;;;;;12.52;5.55;;;;;;;9.89;90.04;95910.41;2080190;28;20045;-57
2023/06/02 03:57:08;;;;;;;12.07;6.50;;;;;;;9.93;89.89;95906.72;2088611;28;20064;-57
2023/06/02 03:58:12;;;;;;;13.75;6.65;;;;;;;9.97;89.75;95901.41;2088976;28;20148;-57
2023/06/02 03:59:13;;;;;;;9.40;6.00;;;;;;;10.00;89.68;95906.47;2080649;28;20053;-57
2023/06/02 04:00:14;;;;;;;13.63;6.05;;;;;;;9.95;90.21;95888.50;2088961;28;20400;-57
2023/06/02 04:01:18;;;;;;;10.88;6.13;;;;;;;10.05;89.61;95902.75;2098089;28;20464;-57
2023/06/02 04:02:20;;;;;;;12.63;5.97;;;;;;;10.10;89.23;95902.50;2088323;28;20059;-57
2023/06/02 04:03:22;;;;;;;11.85;5.65;;;;;;;10.14;89.05;95902.31;2080773;28;20053;-58
2023/06/02 04:04:23;;;;;;;11.82;5.93;;;;;;;10.20;88.29;95906.34;2080396;28;20390;-57
2023/06/02 04:05:24;;;;;;;12.93;5.78;;;;;;;10.21;88.50;95897.69;2080404;28;20061;-58
2023/06/02 04:06:25;;;;;;;11.23;5.45;;;;;;;10.27;88.45;95901.72;2081287;28;20460;-58
2023/06/02 04:07:27;;;;;;;14.52;6.32;;;;;;;10.29;88.30;95903.38;2080697;28;20057;-59
2023/06/02 04:08:28;;;;;;;13.15;6.10;;;;;;;10.33;87.50;95902.31;2088472;28;20078;-58
2023/06/02 04:09:29;;;;;;;9.27;6.13;;;;;;;10.38;87.48;95909.88;2089517;28;20477;-59
2023/06/02 04:10:31;;;;;;;10.85;6.25;;;;;;;10.46;86.91;95901.72;2088864;28;20175;-59
2023/06/02 04:11:32;;;;;;;17.80;5.55;;;;;;;10.51;86.95;95902.34;2089015;28;20049;-58
2023/06/02 04:12:33;;;;;;;9.23;5.05;;;;;;;10.56;86.74;95911.59;2080500;28;20060;-59
2023/06/02 04:13:35;;;;;;;12.98;5.63;;;;;;;10.63;85.98;95909.53;2080307;28;20060;-59
2023/06/02 04:14:36;;;;;;;9.38;6.07;;;;;;;10.65;86.46;95904.28;2080748;28;20045;-59
2023/06/02 04:15:38;;;;;;;11.30;5.70;;;;;;;10.67;85.81;95910.25;2080903;28;20060;-58
2023/06/02 04:16:39;;;;;;;10.43;5.90;;;;;;;10.70;85.54;95908.31;2080730;28;20090;-59
2023/06/02 04:17:40;;;;;;;10.57;5.85;;;;;;;10.77;84.54;95907.13;2088381;28;20064;-59
2023/06/02 04:18:41;;;;;;;11.60;6.18;;;;;;;10.82;84.88;95912.91;2080123;28;20049;-58
2023/06/02 04:19:44;;;;;;;12.23;6.22;;;;;;;10.87;84.58;95907.47;2080332;28;20060;-59
2023/06/02 04:20:45;;;;;;;10.70;5.60;;;;;;;10.91;83.47;95908.19;2089086;28;20536;-57
2023/06/02 04:21:46;;;;;;;13.00;5.85;;;;;;;10.98;83.50;95917.34;2088742;28;20056;-57
2023/06/02 04:22:48;;;;;;;11.52;6.40;;;;;;;10.95;83.16;95901.91;2080865;28;20050;-57
2023/06/02 04:23:50;;;;;;;12.77;5.93;;;;;;;11.08;81.89;95915.97;2080806;28;20518;-57
2023/06/02 04:24:51;;;;;;;12.70;5.95;;;;;;;11.15;81.61;95913.91;2080950;28;20053;-57
2023/06/02 04:25:52;;;;;;;13.32;5.55;;;;;;;11.18;81.17;95911.97;2080445;28;20084;-57
2023/06/02 04:26:54;;;;;;;10.55;5.80;;;;;;;11.19;80.66;95899.81;2088647;28;20057;-57
2023/06/02 04:27:55;;;;;;;12.50;5.28;;;;;;;11.24;80.93;95901.25;2088690;28;20048;-57
2023/06/02 04:28:56;;;;;;;14.45;6.28;;;;;;;11.38;80.08;95907.50;2088346;28;20041;-57
2023/06/02 04:29:58;;;;;;;10.30;5.85;;;;;;;11.43;80.54;95911.56;2079986;28;20061;-57
2023/06/02 04:30:59;;;;;;;13.93;5.95;;;;;;;11.50;79.67;95916.44;2080222;28;20444;-57
2023/06/02 04:32:03;;;;;;;14.95;6.07;;;;;;;11.49;79.27;95902.59;2089060;28;20405;-57
2023/06/02 04:33:05;;;;;;;10.93;5.72;;;;;;;11.62;78.92;95913.19;2080182;28;20061;-57
2023/06/02 04:34:07;;;;;;;11.48;5.78;;;;;;;11.67;78.26;95913.78;2080733;28;20082;-57
2023/06/02 04:35:08;;;;;;;10.52;5.50;;;;;;;11.75;77.49;95918.59;2088977;28;20044;-57
2023/06/02 04:36:10;;;;;;;9.55;5.90;;;;;;;11.79;76.65;95915.75;2088430;28;20053;-57
2023/06/02 04:37:12;;;;;;;9.07;6.13;;;;;;;11.89;74.71;95913.50;2080141;28;20057;-57
2023/06/02 04:38:14;;;;;;;7.82;5.53;;;;;;;11.98;74.52;95923.44;2081687;28;20048;-57
2023/06/02 04:39:16;;;;;;;9.57;5.80;;;;;;;12.05;74.00;95916.13;2089958;28;20045;-58
2023/06/02 04:40:17;;;;;;;12.68;6.13;;;;;;;12.09;73.07;95923.69;2082017;28;20061;-57
2023/06/02 04:41:19;;;;;;;10.40;5.57;;;;;;;12.18;72.14;95922.34;2082267;28;20061;-57
2023/06/02 04:42:20;;;;;;;11.50;5.95;;;;;;;12.22;71.99;95918.66;2090670;28;20041;-57
2023/06/02 04:43:22;;;;;;;10.10;5.68;;;;;;;12.28;71.69;95915.72;2090862;28;20465;-58
2023/06/02 04:44:23;;;;;;;8.88;5.05;;;;;;;12.35;71.44;95924.06;2082474;28;20453;-57
2023/06/02 04:45:25;;;;;;;9.23;5.30;;;;;;;12.40;70.13;95921.16;2082380;28;20061;-57
2023/06/02 04:46:27;;;;;;;9.50;5.47;;;;;;;12.45;69.32;95921.75;2081953;28;20053;-57
2023/06/02 04:47:28;;;;;;;10.35;5.53;;;;;;;12.54;68.16;95921.25;2081724;28;20053;-57
2023/06/02 04:48:30;;;;;;;10.30;5.55;;;;;;;12.56;67.05;95906.34;2090251;28;20053;-57
2023/06/02 04:49:31;;;;;;;9.15;5.60;;;;;;;12.67;67.81;95926.59;2089774;28;20049;-57
2023/06/02 04:50:33;;;;;;;11.43;5.72;;;;;;;12.71;67.86;95923.72;2089930;28;20060;-57
2023/06/02 04:51:34;;;;;;;9.73;5.07;;;;;;;12.66;68.05;95912.72;2089795;28;20464;-58